LGRX/GPA METAR and TAF weather

Enter ICAO airport designator
Station Type Date Time Source
LGRX METAR 2021/03/08 16:20 UTC NOAA

LGRX 081620Z 00000KT 9999 FEW025 SCT080 15/11 Q1015


Station Type Date Time Source
LGRX Decoded METAR 2021/03/08 16:20 UTC NOAA

Araxos Airport , Greece (LGRX) 38-09N 021-25E 12M
Mar 08, 2021 - 11:20 AM EST / 2021.03.08 1620 UTC
Wind: Calm:0
Visibility: greater than 7 mile(s):0
Sky conditions: partly cloudy
Temperature: 59 F (15 C)
Dew Point: 51 F (11 C)
Relative Humidity: 76%
Pressure (altimeter): 29.97 in. Hg (1015 hPa)
ob: LGRX 081620Z 00000KT 9999 FEW025 SCT080 15/11 Q1015
cycle: 16

Station Type Date Time Source
LGRX TAF 2020/03/18 09:39 UTC NOAA

TAF LGRX 180800Z 1809/1821 33006KT 9999 FEW030
BECMG 1816/1818 07010KT

Example: see airport list